Station: Hindmarsh Island  

  Atmospheric Gas Attenuation - ITU Rec 676-11   ----------------- dB/100km -----------------
Date Time Temp RH % AH g/m3 Dew Point Wind Direction Speed kph Gust kph Barometer mB Rainfall Since 9am 24GHz 47GHz 76GHz 122GHz 134GHz 241GHz
06/09 20:20 12.1 94 10.08 11.2 6 9 1026.1 0.4 22.8 29.4 47.6 124.9 122.4 422.0
06/09 20:10 12.2 94 10.14 11.3 15 20 1026.1 0.4 23.0 29.5 47.8 125.5 123.1 424.5
06/09 20:00 12.4 93 10.16 11.3 17 20 1026 0.2 23.0 29.5 47.7 125.4 123.1 424.4
06/09 19:50 12.5 92 10.12 11.2 17 22 1025.9 0 22.9 29.4 47.5 124.7 122.3 421.8
06/09 19:40 12.8 91 10.19 11.4 15 19 1025.8 0 23.0 29.4 47.6 125.1 122.8 423.6
06/09 19:30 12.7 90 10.02 11.1 15 17 1025.7 0 22.7 29.1 46.9 123.2 120.5 415.7
06/09 19:20 12.8 90 10.08 11.2 15 17 1025.7 0 22.8 29.2 47.1 123.8 121.2 418.1
06/09 19:10 12.7 90 10.02 11.1 13 17 1025.5 0 22.7 29.1 46.9 123.2 120.5 415.6
06/09 19:00 12.7 90 10.02 11.1 11 13 1025.5 0 22.7 29.1 46.9 123.2 120.5 415.6
06/09 18:50 12.8 91 10.19 11.4 13 15 1025.4 0 23.0 29.4 47.6 125.0 122.8 423.5
06/09 18:40 12.9 90 10.14 11.3 15 17 1025.3 0 22.9 29.2 47.3 124.3 121.9 420.4
06/09 18:30 13 90 10.21 11.4 15 20 1025.3 0 23.1 29.3 47.5 124.9 122.7 423.4
06/09 18:20 13 90 10.21 11.4 15 19 1025.1 0 23.1 29.3 47.5 124.9 122.7 423.3
06/09 18:10 13 89 10.09 11.2 17 20 1025 0 22.8 29.1 47.0 123.5 121.0 417.3
06/09 18:00 13 89 10.09 11.2 20 24 1024.9 0 22.8 29.1 47.0 123.5 121.0 417.3
06/09 17:50 13.2 88 10.1 11.3 20 24 1024.8 0 22.8 29.0 46.9 123.3 120.8 416.6
06/09 17:40 13.3 86 9.94 11 17 24 1024.7 0 22.5 28.7 46.2 121.3 118.4 408.2
06/09 17:30 13.6 83 9.77 10.8 17 20 1024.4 0 22.1 28.3 45.2 118.8 115.5 398.2
06/09 17:20 13.7 82 9.71 10.7 17 20 1024.5 0 22.0 28.2 44.9 118.0 114.5 394.8
06/09 17:10 13.8 80 9.53 10.4 17 22 1024.5 0 21.6 27.9 44.1 115.8 111.9 385.6
06/09 17:00 14 82 9.89 11 11 15 1024.4 0 22.3 28.4 45.5 119.6 116.6 402.0
06/09 16:50 13.9 81 9.71 10.7 13 15 1024.4 0 21.9 28.1 44.8 117.7 114.2 393.8
06/09 16:40 13.9 80 9.59 10.5 15 17 1024.2 0 21.7 27.9 44.3 116.3 112.6 387.9
06/09 16:30 14.1 80 9.71 10.7 17 20 1024.1 0 21.9 28.1 44.7 117.4 113.9 392.7
06/09 16:20 14 80 9.65 10.6 13 17 1023.9 0 21.8 28.0 44.5 116.8 113.2 390.2
06/09 16:10 14.2 80 9.77 10.8 13 17 1023.9 0 22.1 28.1 44.9 117.9 114.6 395.0
06/09 16:00 14.3 79 9.71 10.7 17 20 1023.9 0 21.9 28.0 44.6 117.0 113.6 391.6
06/09 15:50 14.5 81 10.07 11.3 15 17 1023.8 0 22.7 28.5 46.0 120.8 118.3 407.9
06/09 15:40 14.1 81 9.83 10.9 15 19 1023.8 0 22.2 28.2 45.2 118.7 115.5 398.4
06/09 15:30 14.2 80 9.77 10.8 17 20 1023.7 0 22.1 28.1 44.9 117.8 114.6 394.9
06/09 15:20 14.2 78 9.52 10.4 19 20 1023.6 0 21.5 27.7 43.8 115.0 111.1 382.9
06/09 15:10 14.6 75 9.39 10.2 15 17 1023.5 0 21.2 27.3 43.1 113.0 108.8 374.8
06/09 15:00 14.7 75 9.44 10.3 15 19 1023.5 0 21.3 27.4 43.2 113.4 109.3 376.6
06/09 14:50 14.4 74 9.15 9.8 15 20 1023.5 0 20.7 27.0 42.2 110.7 105.8 364.4
06/09 14:40 14.7 75 9.44 10.3 19 20 1023.4 0 21.3 27.4 43.2 113.4 109.3 376.6
06/09 14:30 14.8 72 9.12 9.8 19 22 1023.4 0 20.6 26.8 41.8 109.8 104.9 361.1
06/09 14:20 15.1 72 9.29 10.1 17 22 1023.3 0 21.0 27.0 42.4 111.2 106.7 367.6
06/09 14:10 14.8 70 8.87 9.4 17 20 1023.3 0 20.1 26.4 40.8 107.1 101.5 349.4
06/09 14:00 15.2 69 8.96 9.6 17 20 1023.3 0 20.3 26.4 41.0 107.5 102.2 351.8
06/09 13:50 15.6 69 9.18 9.9 13 19 1023.3 0 20.7 26.7 41.7 109.3 104.6 360.2
06/09 13:40 15.7 68 9.1 9.8 13 17 1023.4 0 20.5 26.5 41.3 108.3 103.4 356.1
06/09 13:30 15.2 67 8.7 9.1 11 15 1023.5 0 19.7 26.0 40.0 104.7 98.8 339.9
06/09 13:20 15.1 67 8.64 9 11 15 1023.4 0 19.6 26.0 39.8 104.2 98.1 337.5
06/09 13:10 15 71 9.1 9.8 11 15 1023.6 0 20.6 26.7 41.7 109.3 104.3 359.3
06/09 13:00 15.2 71 9.22 10 13 19 1023.7 0 20.8 26.9 42.1 110.3 105.7 364.0
06/09 12:50 15.6 73 9.71 10.8 13 19 1023.7 0 21.9 27.6 43.8 115.1 111.7 385.1
06/09 12:40 15.4 73 9.59 10.6 13 17 1023.7 0 21.6 27.4 43.5 114.1 110.4 380.4
06/09 12:30 15 72 9.23 10 13 17 1023.9 0 20.9 27.0 42.2 110.7 106.1 365.5
06/09 12:20 15 73 9.36 10.2 15 19 1023.9 0 21.1 27.2 42.7 112.2 107.8 371.6
06/09 12:10 15 76 9.75 10.8 17 20 1024.1 0 22.0 27.8 44.4 116.5 113.1 390.1
06/09 12:00 15.4 75 9.85 11 15 20 1024.2 0 22.2 27.9 44.5 117.0 113.9 392.9
06/09 11:50 14.9 71 9.05 9.7 11 15 1024.3 0 20.5 26.7 41.5 109.0 103.9 357.6
06/09 11:40 14.7 72 9.07 9.7 11 15 1024.4 0 20.5 26.8 41.7 109.5 104.4 359.5
06/09 11:30 14.7 72 9.07 9.7 9 13 1024.4 0 20.5 26.8 41.7 109.5 104.4 359.5
06/09 11:20 14.7 71 8.94 9.5 9 13 1024.4 0 20.3 26.6 41.2 108.1 102.7 353.4
06/09 11:10 14.6 72 9.01 9.6 9 13 1024.4 0 20.4 26.7 41.5 109.0 103.7 357.1
06/09 11:00 14.6 74 9.26 10 7 11 1024.3 0 20.9 27.2 42.6 111.7 107.1 368.9
06/09 10:50 14.4 73 9.02 9.6 9 13 1024.3 0 20.4 26.8 41.7 109.3 104.1 358.5
06/09 10:40 14.7 72 9.07 9.7 13 17 1024.3 0 20.5 26.8 41.7 109.5 104.4 359.5
06/09 10:30 14.9 77 9.81 10.9 19 22 1024.2 0 22.1 28.0 44.7 117.3 114.1 393.5
06/09 10:20 14.5 76 9.45 10.3 20 24 1024.3 0 21.4 27.5 43.4 113.9 109.8 378.3
06/09 10:10 15 74 9.49 10.4 15 19 1024.4 0 21.4 27.4 43.3 113.6 109.6 377.8
06/09 10:00 14.6 73 9.14 9.8 13 19 1024.3 0 20.7 27.0 42.1 110.4 105.5 363.2
06/09 09:50 15.1 75 9.68 10.7 13 19 1024.2 0 21.8 27.7 44.0 115.6 112.0 386.3
06/09 09:40 14.3 77 9.46 10.3 13 17 1024.1 0 21.4 27.6 43.5 114.3 110.2 379.7
06/09 09:30 13.7 79 9.36 10.1 13 17 1024 0 21.2 27.6 43.5 114.0 109.7 377.8
06/09 09:20 13.5 80 9.36 10.1 11 15 1023.9 0 21.2 27.6 43.6 114.3 110.0 378.8
06/09 09:10 13.2 83 9.53 10.4 9 13 1023.8 0 21.6 28.0 44.4 116.7 112.7 388.4
06/09 09:00 13 86 9.75 10.7 11 17 1024 0 22.1 28.5 45.5 119.5 116.1 400.2
06/09 08:50 12.7 87 9.69 10.6 15 20 1023.8 1 22.0 28.5 45.4 119.2 115.7 398.7
06/09 08:40 13.2 85 9.76 10.7 15 20 1023.7 1 22.1 28.4 45.4 119.2 115.9 399.6
06/09 08:30 13.4 84 9.77 10.8 13 19 1023.4 1 22.1 28.4 45.3 119.0 115.7 398.9
06/09 08:20 13.1 86 9.81 10.8 9 15 1023.2 1 22.2 28.5 45.7 119.9 116.7 402.4
06/09 08:10 12.8 87 9.75 10.7 11 15 1023.1 1 22.1 28.5 45.6 119.7 116.3 401.0
06/09 08:00 12.6 86 9.52 10.3 13 15 1023 1 21.6 28.2 44.7 117.4 113.4 390.7
06/09 07:50 12.5 88 9.68 10.6 13 17 1022.8 1 22.0 28.5 45.4 119.3 115.8 399.0
06/09 07:40 12.2 89 9.61 10.4 11 17 1022.6 1 21.8 28.4 45.3 118.9 115.2 397.0
06/09 07:30 12.1 89 9.55 10.3 17 26 1022.6 1 21.7 28.4 45.1 118.4 114.5 394.6
06/09 07:20 12 89 9.49 10.2 24 30 1022.4 1 21.6 28.3 44.9 117.9 113.8 392.1
06/09 07:10 11.7 89 9.31 9.9 11 15 1022.2 1 21.2 28.1 44.3 116.2 111.7 384.6
06/09 07:00 11.6 89 9.25 9.9 11 13 1022.2 1 21.1 28.0 44.1 115.7 111.0 382.2
06/09 06:50 11.3 89 9.08 9.6 11 13 1022.1 1 20.7 27.8 43.5 114.2 109.0 375.3
06/09 06:40 11.5 90 9.3 9.9 9 11 1022.1 1 21.2 28.1 44.3 116.4 111.8 385.1
06/09 06:30 11.5 90 9.3 9.9 9 13 1022 1 21.2 28.1 44.3 116.4 111.8 385.1
06/09 06:20 11.3 90 9.18 9.7 11 15 1022 1 20.9 28.0 43.9 115.3 110.4 380.2
06/09 06:10 11.4 91 9.34 10 13 17 1021.8 1 21.3 28.2 44.6 117.0 112.5 387.5
06/09 06:00 11.5 91 9.4 10.1 13 17 1021.7 1 21.4 28.3 44.7 117.5 113.2 389.9
06/09 05:50 11.5 91 9.4 10.1 11 15 1021.6 1 21.4 28.3 44.7 117.5 113.2 389.9
06/09 05:40 11.7 92 9.62 10.4 13 20 1021.5 1 21.9 28.6 45.6 119.7 116.0 399.7
06/09 05:30 11.4 92 9.44 10.1 11 17 1021.4 1 21.5 28.4 45.0 118.1 113.9 392.3
06/09 05:20 11.3 92 9.39 10 13 20 1021.3 1 21.4 28.3 44.8 117.6 113.3 390.3
06/09 05:10 11.2 92 9.33 10 13 15 1021.1 1 21.3 28.2 44.6 117.1 112.6 387.8
06/09 05:00 11.3 92 9.39 10 13 17 1021 1 21.4 28.3 44.8 117.6 113.3 390.2
06/09 04:50 11.3 92 9.39 10 15 20 1020.9 1 21.4 28.3 44.8 117.6 113.3 390.2
06/09 04:40 11.3 92 9.39 10 13 17 1020.9 1 21.4 28.3 44.8 117.6 113.3 390.2
06/09 04:30 11.3 92 9.39 10 15 19 1020.9 1 21.4 28.3 44.8 117.6 113.3 390.2
06/09 04:20 11.3 92 9.39 10 13 19 1020.7 1 21.4 28.3 44.8 117.6 113.3 390.1
06/09 04:10 11.3 92 9.39 10 13 19 1020.7 1 21.4 28.3 44.8 117.6 113.3 390.1
06/09 04:00 11.4 92 9.44 10.1 11 17 1020.6 1 21.5 28.3 44.9 118.0 113.8 392.1
06/09 03:50 11.8 92 9.68 10.5 15 26 1020.6 1 22.0 28.6 45.7 120.1 116.6 401.9

Last Refresh: 06-Sep-2026 20:35:36

Bureau of Meteorology